createdAt,value
2024-05-09T00:02:25.934Z,3.20
2024-05-09T00:05:27.589Z,2.97
2024-05-09T00:08:29.341Z,3.13
2024-05-09T00:11:31.061Z,3.75
2024-05-09T00:14:33.646Z,3.72
2024-05-09T00:17:35.368Z,3.03
2024-05-09T00:20:40.073Z,2.70
2024-05-09T00:23:42.785Z,3.17
2024-05-09T00:26:44.342Z,3.20
2024-05-09T00:29:45.852Z,3.03
2024-05-09T00:32:47.503Z,3.13
2024-05-09T00:35:49.133Z,4.00
2024-05-09T00:38:50.606Z,3.30
2024-05-09T00:41:53.264Z,3.53
2024-05-09T00:44:54.821Z,3.38
2024-05-09T00:47:56.602Z,3.10
2024-05-09T00:50:58.410Z,2.45
2024-05-09T00:53:59.906Z,3.42
2024-05-09T00:57:01.491Z,3.10
2024-05-09T01:00:04.740Z,3.00
2024-05-09T01:03:08.036Z,3.73
2024-05-09T01:06:10.047Z,3.00
2024-05-09T01:09:11.559Z,2.97
2024-05-09T01:12:13.310Z,3.33
2024-05-09T01:15:14.899Z,3.05
2024-05-09T01:18:16.613Z,2.53
2024-05-09T01:21:18.371Z,2.90
2024-05-09T01:24:20.049Z,2.92
2024-05-09T01:27:21.506Z,3.15
2024-05-09T01:30:31.264Z,3.22
2024-05-09T01:33:35.816Z,2.67
2024-05-09T01:36:37.385Z,3.13
2024-05-09T01:39:38.901Z,3.00
2024-05-09T01:42:40.408Z,2.85
2024-05-09T01:45:41.972Z,2.97
2024-05-09T01:48:43.600Z,2.97
2024-05-09T01:51:45.191Z,2.70
2024-05-09T01:54:46.670Z,3.28
2024-05-09T01:57:48.176Z,3.45
2024-05-09T02:00:49.711Z,3.50
2024-05-09T02:03:52.846Z,3.10
2024-05-09T02:06:54.565Z,3.20
2024-05-09T02:09:56.063Z,3.03
2024-05-09T02:12:57.532Z,3.17
2024-05-09T02:15:59.064Z,3.08
2024-05-09T02:19:00.653Z,3.27
2024-05-09T02:22:02.150Z,2.60
2024-05-09T02:25:03.660Z,3.10
2024-05-09T02:28:05.099Z,2.75
2024-05-09T02:31:06.630Z,2.83
2024-05-09T02:34:08.168Z,3.70
2024-05-09T02:37:09.724Z,3.08
2024-05-09T02:40:14.749Z,3.05
2024-05-09T02:43:19.642Z,3.63
2024-05-09T02:46:21.111Z,3.15
2024-05-09T02:49:22.813Z,3.37
2024-05-09T02:52:24.288Z,3.30
2024-05-09T02:55:26.214Z,2.67
2024-05-09T02:58:27.668Z,3.50
2024-05-09T03:01:29.199Z,3.13
2024-05-09T03:04:30.861Z,2.87
2024-05-09T03:07:32.430Z,3.03
2024-05-09T03:10:36.654Z,3.22
2024-05-09T03:13:40.128Z,2.97
2024-05-09T03:16:41.622Z,3.03
2024-05-09T03:19:43.220Z,3.30
2024-05-09T03:22:46.066Z,3.78
2024-05-09T03:25:47.695Z,3.38
2024-05-09T03:28:49.249Z,3.40
2024-05-09T03:31:50.810Z,2.40
2024-05-09T03:34:52.438Z,3.07
2024-05-09T03:37:53.948Z,2.92
2024-05-09T03:40:55.514Z,4.13
2024-05-09T03:43:57.133Z,3.15
2024-05-09T03:46:58.672Z,3.63
2024-05-09T03:50:00.294Z,3.43
2024-05-09T03:53:02.083Z,3.85
2024-05-09T03:56:03.860Z,3.65
2024-05-09T03:59:05.524Z,3.30
2024-05-09T04:02:07.110Z,3.10
2024-05-09T04:05:08.735Z,5.17
2024-05-09T04:08:10.860Z,7.47
2024-05-09T04:11:12.896Z,6.13
2024-05-09T04:14:14.520Z,3.67
2024-05-09T04:17:16.095Z,4.53
2024-05-09T04:20:28.731Z,4.67
2024-05-09T04:23:38.136Z,4.00
2024-05-09T04:26:39.778Z,3.70
2024-05-09T04:29:41.334Z,2.97
2024-05-09T04:32:42.943Z,3.88
2024-05-09T04:35:44.978Z,4.07
2024-05-09T04:38:46.834Z,3.00
2024-05-09T04:41:48.386Z,3.45
2024-05-09T04:44:49.918Z,3.60
2024-05-09T04:47:51.875Z,3.97
2024-05-09T04:50:53.758Z,3.43
2024-05-09T04:53:55.364Z,3.90
2024-05-09T04:56:56.809Z,3.35
2024-05-09T04:59:58.356Z,3.55
2024-05-09T05:03:00.076Z,3.70
2024-05-09T05:06:01.856Z,3.83
2024-05-09T05:09:03.413Z,3.85
2024-05-09T05:12:05.095Z,3.60
2024-05-09T05:15:06.653Z,3.78
2024-05-09T05:18:08.296Z,3.38
2024-05-09T05:21:09.865Z,3.40
2024-05-09T05:24:11.424Z,3.13
2024-05-09T05:27:12.931Z,3.90
2024-05-09T05:30:21.197Z,2.97
2024-05-09T05:33:27.132Z,3.88
2024-05-09T05:36:28.743Z,3.63
2024-05-09T05:39:30.273Z,3.67
2024-05-09T05:42:31.710Z,3.08
2024-05-09T05:45:33.253Z,3.15
2024-05-09T05:48:34.854Z,3.20
2024-05-09T05:51:36.498Z,3.87
2024-05-09T05:54:38.027Z,3.28
2024-05-09T05:57:39.486Z,4.05
2024-05-09T06:00:41.942Z,3.25
2024-05-09T06:03:44.455Z,3.88
2024-05-09T06:06:46.076Z,3.47
2024-05-09T06:09:49.084Z,4.00
2024-05-09T06:12:51.816Z,3.22
2024-05-09T06:15:53.342Z,3.53
2024-05-09T06:18:54.962Z,3.28
2024-05-09T06:21:56.665Z,4.40
2024-05-09T06:24:58.114Z,5.88
2024-05-09T06:27:59.663Z,5.07
2024-05-09T06:31:01.203Z,4.85
2024-05-09T06:34:02.832Z,4.43
2024-05-09T06:37:04.560Z,4.30
2024-05-09T06:40:07.598Z,5.07
2024-05-09T06:43:11.313Z,5.78
2024-05-09T06:46:12.887Z,5.93
2024-05-09T06:49:14.883Z,6.72
2024-05-09T06:52:16.510Z,4.97
2024-05-09T06:55:18.059Z,4.50
2024-05-09T06:58:19.566Z,5.55
2024-05-09T07:01:21.068Z,5.32
2024-05-09T07:04:22.725Z,6.43
2024-05-09T07:07:24.244Z,4.93
2024-05-09T07:10:32.458Z,5.93
2024-05-09T07:13:36.160Z,5.68
2024-05-09T07:16:37.725Z,5.82
2024-05-09T07:19:39.350Z,5.18
2024-05-09T07:22:41.041Z,5.47
2024-05-09T07:25:42.594Z,5.18
2024-05-09T07:28:44.114Z,4.18
2024-05-09T07:31:45.702Z,4.63
2024-05-09T07:34:47.240Z,4.50
2024-05-09T07:37:48.777Z,4.37
2024-05-09T07:40:50.424Z,3.85
2024-05-09T07:43:52.006Z,3.38
2024-05-09T07:48:13.692Z,5.05
2024-05-09T07:53:38.440Z,3.03
2024-05-09T07:56:41.161Z,3.17
2024-05-09T07:59:42.772Z,3.60
2024-05-09T08:02:44.266Z,3.92
2024-05-09T08:05:45.968Z,4.00
2024-05-09T08:08:47.543Z,3.33
2024-05-09T08:11:49.146Z,4.05
2024-05-09T08:14:50.640Z,3.83
2024-05-09T08:17:52.302Z,3.58
2024-05-09T08:20:53.893Z,3.65
2024-05-09T08:23:55.363Z,3.90
2024-05-09T08:26:56.926Z,3.60
2024-05-09T08:29:58.459Z,3.58
2024-05-09T08:33:00.079Z,4.07
2024-05-09T08:36:01.638Z,3.15
2024-05-09T08:39:03.168Z,4.30
2024-05-09T08:42:04.632Z,3.78
2024-05-09T08:45:06.162Z,3.65
2024-05-09T08:48:07.971Z,3.45
2024-05-09T08:51:09.598Z,3.50
2024-05-09T08:54:11.134Z,4.00
2024-05-09T08:57:12.695Z,3.45
2024-05-09T09:00:18.133Z,3.15
2024-05-09T09:03:27.137Z,3.53
2024-05-09T09:06:28.780Z,3.28
2024-05-09T09:09:30.483Z,3.80
2024-05-09T09:12:32.004Z,3.70
2024-05-09T09:15:34.721Z,3.33
2024-05-09T09:18:36.383Z,3.67
2024-05-09T09:21:38.002Z,3.78
2024-05-09T09:24:39.601Z,4.43
2024-05-09T09:27:41.116Z,4.18
2024-05-09T09:30:42.791Z,3.08
2024-05-09T09:33:44.641Z,3.35
2024-05-09T09:36:46.223Z,3.67
2024-05-09T09:39:49.259Z,3.10
2024-05-09T09:42:50.928Z,3.40
2024-05-09T09:45:53.361Z,4.32
2024-05-09T09:48:55.460Z,3.80
2024-05-09T09:51:57.134Z,3.55
2024-05-09T09:54:58.650Z,3.63
2024-05-09T09:58:00.206Z,3.17
2024-05-09T10:01:01.841Z,2.97
2024-05-09T10:04:03.612Z,3.40
2024-05-09T10:07:05.196Z,4.30
2024-05-09T10:10:07.096Z,3.23
2024-05-09T10:13:09.017Z,3.92
2024-05-09T10:16:10.989Z,3.20
2024-05-09T10:19:12.783Z,3.67
2024-05-09T10:22:14.647Z,3.42
2024-05-09T10:25:16.311Z,3.83
2024-05-09T10:28:17.755Z,3.75
2024-05-09T10:31:19.353Z,3.47
2024-05-09T10:34:21.023Z,3.40
2024-05-09T10:37:22.762Z,3.65
2024-05-09T10:40:29.401Z,3.63
2024-05-09T10:43:33.191Z,3.95
2024-05-09T10:46:34.655Z,3.20
2024-05-09T10:49:36.181Z,3.70
2024-05-09T10:52:37.752Z,3.45
2024-05-09T10:55:39.297Z,3.27
2024-05-09T10:58:40.827Z,3.80
2024-05-09T11:01:42.423Z,3.33
2024-05-09T11:04:44.051Z,4.05
2024-05-09T11:07:45.620Z,4.25
2024-05-09T11:10:47.265Z,4.17
2024-05-09T11:13:48.904Z,3.97
2024-05-09T11:16:50.369Z,3.63
2024-05-09T11:19:52.024Z,3.20
2024-05-09T11:22:53.517Z,4.03
2024-05-09T11:25:55.053Z,3.63
2024-05-09T11:28:56.561Z,3.47
2024-05-09T11:31:58.106Z,4.47
2024-05-09T11:35:00.258Z,6.57
2024-05-09T11:38:01.775Z,7.25
2024-05-09T11:41:03.231Z,6.10
2024-05-09T11:44:04.798Z,5.20
2024-05-09T11:47:06.372Z,4.85
2024-05-09T11:50:08.204Z,4.65
2024-05-09T11:53:11.770Z,5.50
2024-05-09T11:56:13.227Z,4.70
2024-05-09T11:59:14.760Z,4.00
2024-05-09T12:02:16.608Z,4.85
2024-05-09T12:05:18.726Z,4.28
2024-05-09T12:08:20.440Z,3.42
2024-05-09T12:11:23.230Z,4.63
2024-05-09T12:14:24.779Z,4.20
2024-05-09T12:17:26.505Z,4.38
2024-05-09T12:20:35.454Z,4.18
2024-05-09T12:23:40.003Z,4.50
2024-05-09T12:26:41.523Z,4.47
2024-05-09T12:29:42.982Z,4.22
2024-05-09T12:32:44.699Z,5.93
2024-05-09T12:35:48.182Z,5.85
2024-05-09T12:38:51.646Z,4.70
2024-05-09T12:41:53.114Z,4.50
2024-05-09T12:44:55.292Z,4.38
2024-05-09T12:47:56.914Z,4.68
2024-05-09T12:50:58.491Z,4.68
2024-05-09T12:54:00.040Z,4.03
2024-05-09T12:57:01.466Z,4.30
2024-05-09T13:00:04.101Z,4.00
2024-05-09T13:03:05.911Z,4.40
2024-05-09T13:06:07.452Z,4.43
2024-05-09T13:09:09.389Z,4.35
2024-05-09T13:12:10.936Z,4.27
2024-05-09T13:15:12.482Z,4.93
2024-05-09T13:18:14.090Z,4.35
2024-05-09T13:21:15.650Z,4.25
2024-05-09T13:24:17.097Z,5.75
2024-05-09T13:27:18.627Z,5.23
2024-05-09T13:30:28.801Z,4.68
2024-05-09T13:33:37.069Z,4.97
2024-05-09T13:36:38.760Z,4.47
2024-05-09T13:39:40.319Z,4.75
2024-05-09T13:42:41.925Z,4.87
2024-05-09T13:45:43.555Z,3.85
2024-05-09T13:48:45.210Z,4.35
2024-05-09T13:51:46.872Z,4.68
2024-05-09T13:54:48.471Z,4.50
2024-05-09T13:57:49.999Z,3.90
2024-05-09T14:00:51.729Z,4.40
2024-05-09T14:03:53.591Z,4.25
2024-05-09T14:06:55.192Z,4.05
2024-05-09T14:09:56.732Z,3.85
2024-05-09T14:12:58.313Z,4.17
2024-05-09T14:15:59.969Z,3.65
2024-05-09T14:19:01.685Z,2.85
2024-05-09T14:22:03.320Z,3.90
2024-05-09T14:25:04.805Z,3.95
2024-05-09T14:28:06.395Z,4.07
2024-05-09T14:31:08.574Z,4.18
2024-05-09T14:34:10.361Z,4.05
2024-05-09T14:37:12.156Z,3.40
2024-05-09T14:40:26.298Z,3.83
2024-05-09T14:43:35.142Z,3.53
2024-05-09T14:46:36.605Z,4.07
2024-05-09T14:49:38.239Z,4.28
2024-05-09T14:52:39.752Z,5.80
2024-05-09T14:55:42.781Z,6.78
2024-05-09T14:58:45.202Z,7.57
2024-05-09T15:01:46.748Z,8.02
2024-05-09T15:04:48.431Z,8.63
2024-05-09T15:07:50.085Z,7.30
2024-05-09T15:10:51.907Z,7.18
2024-05-09T15:13:53.865Z,6.77
2024-05-09T15:16:55.310Z,6.72
2024-05-09T15:19:56.981Z,5.10
2024-05-09T15:22:58.539Z,5.43
2024-05-09T15:26:00.002Z,5.60
2024-05-09T15:29:01.532Z,4.80
2024-05-09T15:32:03.091Z,5.38
2024-05-09T15:35:04.810Z,4.80
2024-05-09T15:38:06.326Z,4.20
2024-05-09T15:41:07.791Z,4.53
2024-05-09T15:44:09.433Z,5.43
2024-05-09T15:47:10.937Z,4.95
2024-05-09T15:50:20.088Z,4.75
2024-05-09T15:53:25.504Z,4.25
2024-05-09T15:56:27.026Z,4.15
2024-05-09T15:59:28.592Z,3.97
2024-05-09T16:02:30.276Z,4.53
2024-05-09T16:05:31.979Z,4.40
2024-05-09T16:08:33.556Z,4.13
2024-05-09T16:11:35.183Z,3.97
2024-05-09T16:14:36.698Z,4.40
2024-05-09T16:17:38.205Z,4.35
2024-05-09T16:20:42.155Z,3.65
2024-05-09T16:23:44.993Z,3.55
2024-05-09T16:26:46.508Z,5.40
2024-05-09T16:29:48.110Z,3.80
2024-05-09T16:32:50.011Z,3.55
2024-05-09T16:35:51.544Z,3.60
2024-05-09T16:38:53.051Z,4.10
2024-05-09T16:41:54.490Z,3.88
2024-05-09T16:44:56.013Z,3.80
2024-05-09T16:47:57.688Z,4.03
2024-05-09T16:50:59.227Z,4.00
2024-05-09T16:54:00.756Z,3.95
2024-05-09T16:57:02.283Z,3.75
2024-05-09T17:00:09.246Z,3.97
2024-05-09T17:03:14.702Z,4.28
2024-05-09T17:06:17.277Z,3.35
2024-05-09T17:09:20.074Z,3.17
2024-05-09T17:12:21.854Z,3.42
2024-05-09T17:15:23.455Z,3.70
2024-05-09T17:18:25.032Z,3.72
2024-05-09T17:21:26.644Z,3.10
2024-05-09T17:24:28.189Z,3.15
2024-05-09T17:27:29.763Z,3.65
2024-05-09T17:30:35.650Z,3.60
2024-05-09T17:33:39.197Z,3.22
2024-05-09T17:36:40.795Z,4.40
2024-05-09T17:39:42.465Z,3.10
2024-05-09T17:42:44.067Z,3.13
2024-05-09T17:45:45.654Z,3.37
2024-05-09T17:48:47.303Z,3.45
2024-05-09T17:51:48.865Z,3.55
2024-05-09T17:54:50.454Z,3.05
2024-05-09T17:57:52.042Z,3.45
2024-05-09T18:00:53.628Z,3.03
2024-05-09T18:03:55.415Z,3.28
2024-05-09T18:06:57.026Z,3.13
2024-05-09T18:09:58.637Z,3.25
2024-05-09T18:13:00.407Z,3.45
2024-05-09T18:16:02.017Z,3.33
2024-05-09T18:19:03.721Z,3.00
2024-05-09T18:22:05.355Z,3.50
2024-05-09T18:25:07.169Z,2.90
2024-05-09T18:28:08.965Z,2.72
2024-05-09T18:31:10.753Z,3.40
2024-05-09T18:34:12.358Z,3.20
2024-05-09T18:37:14.370Z,2.72
2024-05-09T18:40:24.818Z,3.45
2024-05-09T18:43:38.490Z,3.53
2024-05-09T18:46:46.664Z,3.37
2024-05-09T18:49:48.770Z,2.70
2024-05-09T18:52:50.890Z,2.72
2024-05-09T18:55:52.919Z,3.63
2024-05-09T18:58:55.356Z,2.90
2024-05-09T19:01:57.521Z,4.00
2024-05-09T19:04:59.936Z,3.55
2024-05-09T19:08:02.131Z,3.22
2024-05-09T19:11:04.327Z,3.33
2024-05-09T19:14:06.802Z,3.28
2024-05-09T19:17:08.545Z,3.27
2024-05-09T19:20:20.531Z,2.97
2024-05-09T19:23:38.026Z,2.97
2024-05-09T19:26:41.801Z,2.97
2024-05-09T19:29:47.942Z,2.88
2024-05-09T19:32:50.022Z,3.30
2024-05-09T19:35:53.453Z,2.53
2024-05-09T19:38:55.299Z,3.03
2024-05-09T19:41:57.039Z,2.88
2024-05-09T19:44:59.098Z,3.22
2024-05-09T19:48:01.344Z,3.33
2024-05-09T19:51:03.789Z,2.80
2024-05-09T19:54:05.832Z,2.83
2024-05-09T19:57:07.987Z,3.25
2024-05-09T20:00:15.010Z,2.97
2024-05-09T20:03:23.943Z,3.43
2024-05-09T20:06:25.595Z,3.08
2024-05-09T20:09:27.752Z,3.53
2024-05-09T20:12:32.851Z,3.70
2024-05-09T20:15:35.991Z,3.10
2024-05-09T20:18:38.804Z,3.67
2024-05-09T20:21:40.754Z,2.95
2024-05-09T20:24:42.973Z,2.83
2024-05-09T20:27:46.029Z,2.85
2024-05-09T20:30:48.259Z,2.95
2024-05-09T20:33:50.265Z,2.87
2024-05-09T20:36:51.991Z,2.50
2024-05-09T20:39:53.873Z,2.78
2024-05-09T20:42:55.530Z,2.95
2024-05-09T20:45:57.592Z,3.05
2024-05-09T20:48:59.772Z,2.87
2024-05-09T20:52:01.524Z,2.70
2024-05-09T20:55:03.045Z,2.85
2024-05-09T20:58:04.859Z,2.53
2024-05-09T21:01:06.561Z,2.95
2024-05-09T21:04:08.509Z,3.20
2024-05-09T21:07:10.281Z,2.97
2024-05-09T21:10:15.898Z,2.70
2024-05-09T21:13:23.779Z,3.08
2024-05-09T21:16:25.966Z,3.22
2024-05-09T21:19:27.652Z,3.20
2024-05-09T21:22:29.169Z,3.00
2024-05-09T21:25:30.638Z,3.05
2024-05-09T21:28:32.307Z,2.78
2024-05-09T21:31:33.888Z,3.08
2024-05-09T21:34:35.429Z,3.10
2024-05-09T21:37:36.989Z,2.90
2024-05-09T21:40:38.763Z,2.53
2024-05-09T21:43:40.430Z,3.25
2024-05-09T21:46:42.025Z,2.75
2024-05-09T21:49:43.638Z,3.03
2024-05-09T21:52:45.121Z,2.67
2024-05-09T21:55:46.644Z,3.03
2024-05-09T21:58:48.148Z,3.03
2024-05-09T22:01:49.785Z,2.83
2024-05-09T22:04:51.662Z,2.70
2024-05-09T22:07:53.178Z,3.20
2024-05-09T22:10:54.831Z,2.60
2024-05-09T22:13:56.333Z,2.83
2024-05-09T22:16:57.904Z,2.75
2024-05-09T22:19:59.378Z,2.93
2024-05-09T22:23:00.891Z,2.80
2024-05-09T22:26:02.386Z,3.03
2024-05-09T22:29:03.850Z,3.08
2024-05-09T22:32:05.365Z,3.30
2024-05-09T22:35:06.859Z,3.33
2024-05-09T22:38:08.541Z,2.47
2024-05-09T22:41:10.221Z,3.20
2024-05-09T22:44:11.780Z,2.95
2024-05-09T22:47:13.270Z,3.28
2024-05-09T22:50:18.668Z,3.00
2024-05-09T22:53:27.440Z,2.42
2024-05-09T22:56:28.906Z,2.72
2024-05-09T22:59:30.421Z,2.58
2024-05-09T23:02:31.966Z,3.80
2024-05-09T23:05:33.578Z,2.70
2024-05-09T23:08:35.133Z,3.45
2024-05-09T23:11:36.624Z,2.83
2024-05-09T23:14:38.170Z,2.63
2024-05-09T23:17:39.733Z,3.25
2024-05-09T23:20:41.853Z,3.40
2024-05-09T23:23:43.319Z,3.15
2024-05-09T23:26:44.839Z,2.70
2024-05-09T23:29:46.349Z,2.85
2024-05-09T23:32:47.926Z,2.67
2024-05-09T23:35:49.480Z,3.27
2024-05-09T23:38:50.925Z,3.60
2024-05-09T23:41:52.419Z,2.85
2024-05-09T23:44:53.901Z,2.72
2024-05-09T23:47:55.590Z,2.80
2024-05-09T23:50:57.100Z,2.73
2024-05-09T23:53:58.611Z,3.10
2024-05-09T23:57:00.413Z,2.58
